createdAt,value
2019-01-08T00:01:17.761Z,6.70
2019-01-08T00:03:46.614Z,6.70
2019-01-08T00:06:15.518Z,6.70
2019-01-08T00:08:44.598Z,6.60
2019-01-08T00:11:13.457Z,6.50
2019-01-08T00:13:42.338Z,6.40
2019-01-08T00:16:11.249Z,6.40
2019-01-08T00:18:40.150Z,6.40
2019-01-08T00:21:09.006Z,6.40
2019-01-08T00:23:37.856Z,6.50
2019-01-08T00:26:06.831Z,6.60
2019-01-08T00:28:42.886Z,6.60
2019-01-08T00:31:06.641Z,6.50
2019-01-08T00:33:35.480Z,6.50
2019-01-08T00:36:04.442Z,6.40
2019-01-08T00:38:33.290Z,6.40
2019-01-08T00:41:02.222Z,6.30
2019-01-08T00:43:31.274Z,6.30
2019-01-08T00:46:00.921Z,6.20
2019-01-08T00:48:29.780Z,6.20
2019-01-08T00:50:58.707Z,6.10
2019-01-08T00:53:27.580Z,6.10
2019-01-08T00:55:56.408Z,6.00
2019-01-08T00:58:25.273Z,6.00
2019-01-08T01:00:54.381Z,6.00
2019-01-08T01:03:23.272Z,6.00
2019-01-08T01:05:52.135Z,6.00
2019-01-08T01:08:20.995Z,6.00
2019-01-08T01:10:49.870Z,6.00
2019-01-08T01:13:19.393Z,5.90
2019-01-08T01:15:48.366Z,5.90
2019-01-08T01:18:17.218Z,5.90
2019-01-08T01:20:46.241Z,5.90
2019-01-08T01:23:15.908Z,5.90
2019-01-08T01:25:44.830Z,5.90
2019-01-08T01:28:13.676Z,5.90
2019-01-08T01:30:42.581Z,6.00
2019-01-08T01:33:11.397Z,6.00
2019-01-08T01:35:40.325Z,6.00
2019-01-08T01:38:09.181Z,6.10
2019-01-08T01:40:38.314Z,6.10
2019-01-08T01:43:07.194Z,6.20
2019-01-08T01:45:36.089Z,6.20
2019-01-08T01:48:05.001Z,6.30
2019-01-08T01:50:33.951Z,6.30
2019-01-08T01:53:02.765Z,6.30
2019-01-08T01:55:31.701Z,6.30
2019-01-08T01:58:00.609Z,6.40
2019-01-08T02:00:29.612Z,6.40
2019-01-08T02:02:58.442Z,6.40
2019-01-08T02:05:27.365Z,6.40
2019-01-08T02:07:56.212Z,6.40
2019-01-08T02:10:28.461Z,6.50
2019-01-08T02:12:57.437Z,6.50
2019-01-08T02:15:26.565Z,6.50
2019-01-08T02:17:55.461Z,6.50
2019-01-08T02:20:24.308Z,6.50
2019-01-08T02:22:53.160Z,6.60
2019-01-08T02:25:22.065Z,6.60
2019-01-08T02:27:51.002Z,6.60
2019-01-08T02:30:20.625Z,6.70
2019-01-08T02:32:49.458Z,6.70
2019-01-08T02:35:18.468Z,6.70
2019-01-08T02:37:47.337Z,6.70
2019-01-08T02:40:16.298Z,6.70
2019-01-08T02:42:45.136Z,6.60
2019-01-08T02:45:14.029Z,6.60
2019-01-08T02:47:42.890Z,6.60
2019-01-08T02:50:11.897Z,6.60
2019-01-08T02:52:40.741Z,6.60
2019-01-08T02:55:09.655Z,6.50
2019-01-08T02:57:38.471Z,6.50
2019-01-08T03:00:07.450Z,6.50
2019-01-08T03:02:36.379Z,6.40
2019-01-08T03:05:05.376Z,6.40
2019-01-08T03:07:34.285Z,6.40
2019-01-08T03:10:03.218Z,6.40
2019-01-08T03:12:32.112Z,6.40
2019-01-08T03:15:01.787Z,6.40
2019-01-08T03:17:30.601Z,6.30
2019-01-08T03:19:59.775Z,6.30
2019-01-08T03:22:28.642Z,6.30
2019-01-08T03:24:57.489Z,6.30
2019-01-08T03:27:26.368Z,6.30
2019-01-08T03:29:55.365Z,6.30
2019-01-08T03:32:24.249Z,6.30
2019-01-08T03:34:53.079Z,6.30
2019-01-08T03:37:21.927Z,6.20
2019-01-08T03:39:51.108Z,6.20
2019-01-08T03:42:19.971Z,6.20
2019-01-08T03:44:48.878Z,6.20
2019-01-08T03:47:17.859Z,6.20
2019-01-08T03:49:47.121Z,6.20
2019-01-08T03:52:16.093Z,6.20
2019-01-08T03:54:45.009Z,6.20
2019-01-08T03:57:14.121Z,6.20
2019-01-08T03:59:43.308Z,6.20
2019-01-08T04:02:12.138Z,6.20
2019-01-08T04:04:41.066Z,6.20
2019-01-08T04:07:09.973Z,6.20
2019-01-08T04:09:38.981Z,6.30
2019-01-08T04:12:07.933Z,6.30
2019-01-08T04:14:36.779Z,6.30
2019-01-08T04:17:05.683Z,6.20
2019-01-08T04:19:34.797Z,6.20
2019-01-08T04:22:03.624Z,6.10
2019-01-08T04:24:32.454Z,6.00
2019-01-08T04:27:01.374Z,6.00
2019-01-08T04:29:30.299Z,6.00
2019-01-08T04:31:59.172Z,6.00
2019-01-08T04:34:28.047Z,6.10
2019-01-08T04:36:56.882Z,6.10
2019-01-08T04:39:26.033Z,6.20
2019-01-08T04:41:55.186Z,6.20
2019-01-08T04:44:24.030Z,6.30
2019-01-08T04:46:52.865Z,6.30
2019-01-08T04:49:21.963Z,6.30
2019-01-08T04:51:50.821Z,6.20
2019-01-08T04:54:19.706Z,6.20
2019-01-08T04:56:48.573Z,6.20
2019-01-08T04:59:17.693Z,6.20
2019-01-08T05:01:46.550Z,6.30
2019-01-08T05:04:15.548Z,6.20
2019-01-08T05:06:44.421Z,6.30
2019-01-08T05:09:13.554Z,6.30
2019-01-08T05:11:42.492Z,6.30
2019-01-08T05:14:11.333Z,6.30
2019-01-08T05:16:40.223Z,6.20
2019-01-08T05:19:09.217Z,6.10
2019-01-08T05:21:38.049Z,6.10
2019-01-08T05:24:06.885Z,6.10
2019-01-08T05:26:35.757Z,6.10
2019-01-08T05:29:04.933Z,6.00
2019-01-08T05:31:33.765Z,6.00
2019-01-08T05:34:02.709Z,6.00
2019-01-08T05:36:31.547Z,6.00
2019-01-08T05:39:00.629Z,5.90
2019-01-08T05:41:29.493Z,5.90
2019-01-08T05:43:58.314Z,5.80
2019-01-08T05:46:27.213Z,5.80
2019-01-08T05:48:56.105Z,5.80
2019-01-08T05:51:24.969Z,5.80
2019-01-08T05:53:53.824Z,5.70
2019-01-08T05:56:22.725Z,5.70
2019-01-08T05:58:52.082Z,5.70
2019-01-08T06:01:20.946Z,5.70
2019-01-08T06:03:49.837Z,5.70
2019-01-08T06:06:18.673Z,5.70
2019-01-08T06:08:47.705Z,5.70
2019-01-08T06:11:18.929Z,5.70
2019-01-08T06:13:48.134Z,5.70
2019-01-08T06:16:17.023Z,5.70
2019-01-08T06:18:46.131Z,5.80
2019-01-08T06:21:15.082Z,5.80
2019-01-08T06:23:44.032Z,5.90
2019-01-08T06:26:13.002Z,5.90
2019-01-08T06:28:42.065Z,5.90
2019-01-08T06:31:10.982Z,6.00
2019-01-08T06:33:39.854Z,6.00
2019-01-08T06:36:08.769Z,6.10
2019-01-08T06:38:37.947Z,6.10
2019-01-08T06:41:09.151Z,6.10
2019-01-08T06:43:37.989Z,6.20
2019-01-08T06:46:06.907Z,6.20
2019-01-08T06:48:36.916Z,6.20
2019-01-08T06:51:05.766Z,6.30
2019-01-08T06:53:34.583Z,6.30
2019-01-08T06:56:03.522Z,6.30
2019-01-08T06:58:33.450Z,6.30
2019-01-08T07:01:02.280Z,6.30
2019-01-08T07:03:31.289Z,6.40
2019-01-08T07:06:01.327Z,6.40
2019-01-08T07:08:30.643Z,6.40
2019-01-08T07:10:59.997Z,6.50
2019-01-08T07:13:28.853Z,6.50
2019-01-08T07:15:57.725Z,6.50
2019-01-08T07:18:26.854Z,6.50
2019-01-08T07:20:55.693Z,6.50
2019-01-08T07:23:24.581Z,6.50
2019-01-08T07:25:53.482Z,6.50
2019-01-08T07:28:23.837Z,6.50
2019-01-08T07:30:52.877Z,6.50
2019-01-08T07:33:21.810Z,6.50
2019-01-08T07:35:51.518Z,6.60
2019-01-08T07:38:20.398Z,6.60
2019-01-08T07:40:49.253Z,6.60
2019-01-08T07:43:18.082Z,6.60
2019-01-08T07:45:47.301Z,6.60
2019-01-08T07:48:16.269Z,6.70
2019-01-08T07:50:45.251Z,6.70
2019-01-08T07:53:14.273Z,6.70
2019-01-08T07:55:43.267Z,6.70
2019-01-08T07:58:13.014Z,6.70
2019-01-08T08:00:49.783Z,6.70
2019-01-08T08:03:12.483Z,6.70
2019-01-08T08:05:41.361Z,6.60
2019-01-08T08:08:10.249Z,6.70
2019-01-08T08:10:39.107Z,6.70
2019-01-08T08:13:08.030Z,6.80
2019-01-08T08:15:36.895Z,6.90
2019-01-08T08:18:05.858Z,6.90
2019-01-08T08:20:35.842Z,6.90
2019-01-08T08:23:04.761Z,7.00
2019-01-08T08:25:33.646Z,7.00
2019-01-08T08:28:02.680Z,7.00
2019-01-08T08:30:31.541Z,7.00
2019-01-08T08:33:00.466Z,7.00
2019-01-08T08:35:29.516Z,7.00
2019-01-08T08:37:58.667Z,7.00
2019-01-08T08:40:27.592Z,7.00
2019-01-08T08:42:56.598Z,7.00
2019-01-08T08:45:25.425Z,7.00
2019-01-08T08:47:54.305Z,7.10
2019-01-08T08:50:23.205Z,7.10
2019-01-08T08:52:52.441Z,7.10
2019-01-08T08:55:21.263Z,7.10
2019-01-08T08:57:50.781Z,7.10
2019-01-08T09:00:19.818Z,7.10
2019-01-08T09:02:48.743Z,7.10
2019-01-08T09:05:17.834Z,7.10
2019-01-08T09:07:46.762Z,7.10
2019-01-08T09:10:17.018Z,7.20
2019-01-08T09:12:45.994Z,7.10
2019-01-08T09:15:14.974Z,7.10
2019-01-08T09:17:44.011Z,7.10
2019-01-08T09:20:13.038Z,7.00
2019-01-08T09:22:42.609Z,7.10
2019-01-08T09:25:11.781Z,7.10
2019-01-08T09:27:40.722Z,7.10
2019-01-08T09:30:09.875Z,7.10
2019-01-08T09:32:38.886Z,7.10
2019-01-08T09:35:07.803Z,7.10
2019-01-08T09:37:36.673Z,7.10
2019-01-08T09:40:05.898Z,7.10
2019-01-08T09:42:34.916Z,7.10
2019-01-08T09:45:04.028Z,7.00
2019-01-08T09:47:33.018Z,7.00
2019-01-08T09:50:04.214Z,7.00
2019-01-08T09:52:33.397Z,7.00
2019-01-08T09:55:03.132Z,7.00
2019-01-08T09:57:31.974Z,6.90
2019-01-08T10:00:06.765Z,6.90
2019-01-08T10:02:37.310Z,6.80
2019-01-08T10:05:06.519Z,6.80
2019-01-08T10:07:36.538Z,6.70
2019-01-08T10:10:06.402Z,6.70
2019-01-08T10:12:36.443Z,6.60
2019-01-08T10:15:05.681Z,6.60
2019-01-08T10:17:34.558Z,6.50
2019-01-08T10:20:03.681Z,6.40
2019-01-08T10:22:32.599Z,6.30
2019-01-08T10:25:01.449Z,6.20
2019-01-08T10:27:30.340Z,6.00
2019-01-08T10:29:59.838Z,6.00
2019-01-08T10:32:28.825Z,5.90
2019-01-08T10:34:59.530Z,5.80
2019-01-08T10:37:28.621Z,5.80
2019-01-08T10:39:57.473Z,5.80
2019-01-08T10:42:26.436Z,5.80
2019-01-08T10:44:55.645Z,5.80
2019-01-08T10:47:24.585Z,5.80
2019-01-08T10:49:53.470Z,5.80
2019-01-08T10:52:22.483Z,5.80
2019-01-08T10:54:52.112Z,5.80
2019-01-08T10:57:21.058Z,5.80
2019-01-08T10:59:50.058Z,5.80
2019-01-08T11:02:18.937Z,5.80
2019-01-08T11:04:48.066Z,5.80
2019-01-08T11:07:17.778Z,5.80
2019-01-08T11:09:46.896Z,5.80
2019-01-08T11:12:16.037Z,5.70
2019-01-08T11:14:45.012Z,5.70
2019-01-08T11:17:14.389Z,5.70
2019-01-08T11:19:45.462Z,5.70
2019-01-08T11:22:14.476Z,5.70
2019-01-08T11:24:43.429Z,5.60
2019-01-08T11:27:12.482Z,5.60
2019-01-08T11:29:41.375Z,5.60
2019-01-08T11:32:10.321Z,5.60
2019-01-08T11:34:40.002Z,5.50
2019-01-08T11:37:11.506Z,5.60
2019-01-08T11:39:40.522Z,5.60
2019-01-08T11:42:10.972Z,5.60
2019-01-08T11:44:40.487Z,5.60
2019-01-08T11:47:11.015Z,5.60
2019-01-08T11:49:40.315Z,5.70
2019-01-08T11:52:09.392Z,5.70
2019-01-08T11:54:41.290Z,5.70
2019-01-08T11:57:09.304Z,5.70
2019-01-08T11:59:38.437Z,5.70
2019-01-08T12:02:07.436Z,5.70
2019-01-08T12:04:37.120Z,5.80
2019-01-08T12:07:06.566Z,5.80
2019-01-08T12:09:36.473Z,5.80
2019-01-08T12:12:06.002Z,5.80
2019-01-08T12:14:36.954Z,5.90
2019-01-08T12:17:07.099Z,5.90
2019-01-08T12:19:36.095Z,5.90
2019-01-08T12:22:05.140Z,5.90
2019-01-08T12:24:34.431Z,5.90
2019-01-08T12:27:04.250Z,5.90
2019-01-08T12:29:33.262Z,5.90
2019-01-08T12:32:06.259Z,5.90
2019-01-08T12:34:32.847Z,5.80
2019-01-08T12:37:01.877Z,5.80
2019-01-08T12:39:39.620Z,5.70
2019-01-08T12:42:09.033Z,5.70
2019-01-08T12:44:37.999Z,5.60
2019-01-08T12:47:07.985Z,5.50
2019-01-08T12:49:39.042Z,5.50
2019-01-08T12:52:08.215Z,5.40
2019-01-08T12:54:37.138Z,5.40
2019-01-08T12:57:06.254Z,5.40
2019-01-08T12:59:41.290Z,5.30
2019-01-08T13:02:14.839Z,5.30
2019-01-08T13:04:43.992Z,5.30
2019-01-08T13:07:13.009Z,5.30
2019-01-08T13:09:42.109Z,5.20
2019-01-08T13:12:11.049Z,5.20
2019-01-08T13:14:39.952Z,5.20
2019-01-08T13:17:11.701Z,5.20
2019-01-08T13:19:40.720Z,5.20
2019-01-08T13:22:09.667Z,5.10
2019-01-08T13:24:38.601Z,5.10
2019-01-08T13:27:08.599Z,5.10
2019-01-08T13:29:37.716Z,5.10
2019-01-08T13:32:06.735Z,5.10
2019-01-08T13:34:35.694Z,5.10
2019-01-08T13:37:04.951Z,5.10
2019-01-08T13:39:33.978Z,5.10
2019-01-08T13:42:02.910Z,5.10
2019-01-08T13:44:31.922Z,5.10
2019-01-08T13:47:00.973Z,5.10
2019-01-08T13:49:29.889Z,5.10
2019-01-08T13:51:58.910Z,5.10
2019-01-08T13:54:27.923Z,5.10
2019-01-08T13:56:57.200Z,5.10
2019-01-08T13:59:26.277Z,5.00
2019-01-08T14:01:56.681Z,5.00
2019-01-08T14:04:25.571Z,5.00
2019-01-08T14:06:55.184Z,4.90
2019-01-08T14:09:24.235Z,4.90
2019-01-08T14:11:53.209Z,4.80
2019-01-08T14:14:22.407Z,4.80
2019-01-08T14:16:51.511Z,4.70
2019-01-08T14:19:20.935Z,4.70
2019-01-08T14:21:50.019Z,4.70
2019-01-08T14:24:19.816Z,4.60
2019-01-08T14:26:49.177Z,4.60
2019-01-08T14:29:18.184Z,4.60
2019-01-08T14:31:52.482Z,4.60
2019-01-08T14:34:21.714Z,4.50
2019-01-08T14:36:50.632Z,4.40
2019-01-08T14:39:19.718Z,4.40
2019-01-08T14:41:48.626Z,4.40
2019-01-08T14:44:17.654Z,4.30
2019-01-08T14:46:46.688Z,4.30
2019-01-08T14:49:20.901Z,4.20
2019-01-08T14:51:50.555Z,4.20
2019-01-08T14:54:19.507Z,4.20
2019-01-08T14:56:48.478Z,4.20
2019-01-08T14:59:17.494Z,4.10
2019-01-08T15:01:47.450Z,4.10
2019-01-08T15:04:16.430Z,4.10
2019-01-08T15:06:45.661Z,4.10
2019-01-08T15:09:14.635Z,4.10
2019-01-08T15:11:43.590Z,4.10
2019-01-08T15:14:13.038Z,4.10
2019-01-08T15:16:42.369Z,4.10
2019-01-08T15:19:11.494Z,4.10
2019-01-08T15:21:40.646Z,4.00
2019-01-08T15:24:10.260Z,4.00
2019-01-08T15:26:39.894Z,4.10
2019-01-08T15:29:09.047Z,4.00
2019-01-08T15:31:38.308Z,4.00
2019-01-08T15:34:08.912Z,4.00
2019-01-08T15:36:38.287Z,3.90
2019-01-08T15:39:13.196Z,3.90
2019-01-08T15:41:42.490Z,3.90
2019-01-08T15:44:15.448Z,3.90
2019-01-08T15:46:42.103Z,3.90
2019-01-08T15:49:11.564Z,3.90
2019-01-08T15:51:40.886Z,3.90
2019-01-08T15:54:10.628Z,3.90
2019-01-08T15:56:40.259Z,3.90
2019-01-08T15:59:23.832Z,3.90
2019-01-08T16:01:53.322Z,3.90
2019-01-08T16:04:22.361Z,3.80
2019-01-08T16:06:51.978Z,3.90
2019-01-08T16:09:26.128Z,3.90
2019-01-08T16:11:55.466Z,3.90
2019-01-08T16:14:25.475Z,3.90
2019-01-08T16:16:54.569Z,3.80
2019-01-08T16:19:23.560Z,3.80
2019-01-08T16:21:53.493Z,3.80
2019-01-08T16:24:23.535Z,3.80
2019-01-08T16:26:53.056Z,3.80
2019-01-08T16:29:22.508Z,3.70
2019-01-08T16:31:51.738Z,3.70
2019-01-08T16:34:21.127Z,3.70
2019-01-08T16:36:50.535Z,3.70
2019-01-08T16:39:20.318Z,3.60
2019-01-08T16:41:49.393Z,3.60
2019-01-08T16:44:18.529Z,3.60
2019-01-08T16:46:48.069Z,3.60
2019-01-08T16:49:17.880Z,3.60
2019-01-08T16:51:46.822Z,3.60
2019-01-08T16:54:17.805Z,3.70
2019-01-08T16:56:47.798Z,3.70
2019-01-08T16:59:17.007Z,3.70
2019-01-08T17:01:46.043Z,3.70
2019-01-08T17:04:15.110Z,3.80
2019-01-08T17:06:44.095Z,3.80
2019-01-08T17:09:23.289Z,3.80
2019-01-08T17:11:52.682Z,3.70
2019-01-08T17:14:23.210Z,3.70
2019-01-08T17:16:52.623Z,3.60
2019-01-08T17:19:26.993Z,3.60
2019-01-08T17:21:56.830Z,3.60
2019-01-08T17:24:25.718Z,3.60
2019-01-08T17:26:54.990Z,3.50
2019-01-08T17:29:23.858Z,3.50
2019-01-08T17:31:52.734Z,3.40
2019-01-08T17:34:21.906Z,3.40
2019-01-08T17:36:50.864Z,3.40
2019-01-08T17:39:19.731Z,3.40
2019-01-08T17:41:48.586Z,3.30
2019-01-08T17:44:18.582Z,3.40
2019-01-08T17:46:47.481Z,3.40
2019-01-08T17:49:16.517Z,3.40
2019-01-08T17:51:46.336Z,3.40
2019-01-08T17:54:15.510Z,3.40
2019-01-08T17:56:44.676Z,3.40
2019-01-08T17:59:16.003Z,3.40
2019-01-08T18:01:57.184Z,3.40
2019-01-08T18:04:26.210Z,3.50
2019-01-08T18:06:55.152Z,3.50
2019-01-08T18:09:24.547Z,3.50
2019-01-08T18:11:53.785Z,3.50
2019-01-08T18:14:22.667Z,3.50
2019-01-08T18:16:51.722Z,3.50
2019-01-08T18:19:20.785Z,3.50
2019-01-08T18:21:49.901Z,3.50
2019-01-08T18:24:19.363Z,3.40
2019-01-08T18:26:48.554Z,3.40
2019-01-08T18:29:17.842Z,3.40
2019-01-08T18:31:47.044Z,3.40
2019-01-08T18:34:16.417Z,3.40
2019-01-08T18:36:45.835Z,3.40
2019-01-08T18:39:14.803Z,3.40
2019-01-08T18:41:45.273Z,3.30
2019-01-08T18:44:19.631Z,3.30
2019-01-08T18:46:49.819Z,3.30
2019-01-08T18:49:23.005Z,3.30
2019-01-08T18:51:52.249Z,3.40
2019-01-08T18:54:23.649Z,3.40
2019-01-08T18:56:53.962Z,3.40
2019-01-08T18:59:33.493Z,3.40
2019-01-08T19:02:03.625Z,3.40
2019-01-08T19:04:32.482Z,3.40
2019-01-08T19:07:01.733Z,3.40
2019-01-08T19:09:36.025Z,3.40
2019-01-08T19:12:13.538Z,3.40
2019-01-08T19:14:43.081Z,3.40
2019-01-08T19:17:12.109Z,3.40
2019-01-08T19:19:41.234Z,3.40
2019-01-08T19:22:10.331Z,3.40
2019-01-08T19:24:39.627Z,3.30
2019-01-08T19:27:08.657Z,3.30
2019-01-08T19:29:53.002Z,3.30
2019-01-08T19:32:22.341Z,3.30
2019-01-08T19:34:53.543Z,3.30
2019-01-08T19:37:27.382Z,3.30
2019-01-08T19:39:59.110Z,3.30
2019-01-08T19:42:28.016Z,3.30
2019-01-08T19:44:57.998Z,3.20
2019-01-08T19:47:27.683Z,3.20
2019-01-08T19:49:57.493Z,3.10
2019-01-08T19:52:47.190Z,3.10
2019-01-08T19:55:23.221Z,3.00
2019-01-08T19:57:52.244Z,2.90
2019-01-08T20:00:21.149Z,2.90
2019-01-08T20:03:11.605Z,2.80
2019-01-08T20:05:42.162Z,2.70
2019-01-08T20:08:14.809Z,2.70
2019-01-08T20:10:43.764Z,2.70
2019-01-08T20:13:12.746Z,2.60
2019-01-08T20:15:43.669Z,2.60
2019-01-08T20:18:14.280Z,2.60
2019-01-08T20:20:50.886Z,2.60
2019-01-08T20:23:19.522Z,2.60
2019-01-08T20:25:51.617Z,2.50
2019-01-08T20:28:20.631Z,2.50
2019-01-08T20:30:49.647Z,2.50
2019-01-08T20:33:18.551Z,2.50
2019-01-08T20:35:52.067Z,2.50
2019-01-08T20:38:19.674Z,2.40
2019-01-08T20:40:53.856Z,2.40
2019-01-08T20:43:24.438Z,2.40
2019-01-08T20:45:53.413Z,2.40
2019-01-08T20:48:24.433Z,2.40
2019-01-08T20:50:54.903Z,2.40
2019-01-08T20:53:32.585Z,2.30
2019-01-08T20:56:01.580Z,2.30
2019-01-08T20:58:30.510Z,2.20
2019-01-08T21:00:59.894Z,2.20
2019-01-08T21:03:28.769Z,2.10
2019-01-08T21:05:57.714Z,2.10
2019-01-08T21:08:27.627Z,2.10
2019-01-08T21:10:56.643Z,2.10
2019-01-08T21:13:25.585Z,2.00
2019-01-08T21:15:54.447Z,2.00
2019-01-08T21:18:24.265Z,2.00
2019-01-08T21:20:53.221Z,2.10
2019-01-08T21:23:22.439Z,2.10
2019-01-08T21:25:51.744Z,2.10
2019-01-08T21:28:21.898Z,2.10
2019-01-08T21:31:00.924Z,2.20
2019-01-08T21:33:54.385Z,2.20
2019-01-08T21:36:28.201Z,2.20
2019-01-08T21:39:23.022Z,2.10
2019-01-08T21:41:52.804Z,2.10
2019-01-08T21:44:23.226Z,2.20
2019-01-08T21:46:52.189Z,2.20
2019-01-08T21:49:21.837Z,2.20
2019-01-08T21:51:52.209Z,2.20
2019-01-08T21:54:22.130Z,2.20
2019-01-08T21:56:58.110Z,2.20
2019-01-08T21:59:27.170Z,2.20
2019-01-08T22:01:59.226Z,2.20
2019-01-08T22:04:28.068Z,2.20
2019-01-08T22:07:00.917Z,2.20
2019-01-08T22:09:44.557Z,2.20
2019-01-08T22:12:14.250Z,2.10
2019-01-08T22:14:45.422Z,2.10
2019-01-08T22:17:14.428Z,2.10
2019-01-08T22:19:44.401Z,2.20
2019-01-08T22:22:13.325Z,2.10
2019-01-08T22:24:42.161Z,2.10
2019-01-08T22:27:11.875Z,2.10
2019-01-08T22:29:40.876Z,2.20
2019-01-08T22:32:10.755Z,2.20
2019-01-08T22:34:40.656Z,2.20
2019-01-08T22:37:11.374Z,2.20
2019-01-08T22:39:45.439Z,2.20
2019-01-08T22:42:14.354Z,2.20
2019-01-08T22:44:44.073Z,2.20
2019-01-08T22:47:14.568Z,2.20
2019-01-08T22:49:44.926Z,2.20
2019-01-08T22:52:13.855Z,2.20
2019-01-08T22:54:42.809Z,2.20
2019-01-08T22:57:13.468Z,2.20
2019-01-08T22:59:46.236Z,2.20
2019-01-08T23:02:19.546Z,2.20
2019-01-08T23:04:49.517Z,2.20
2019-01-08T23:07:19.333Z,2.10
2019-01-08T23:09:49.097Z,2.20
2019-01-08T23:12:18.346Z,2.10
2019-01-08T23:14:48.517Z,2.20
2019-01-08T23:17:20.691Z,2.20
2019-01-08T23:19:51.506Z,2.20
2019-01-08T23:22:23.395Z,2.20
2019-01-08T23:24:52.414Z,2.20
2019-01-08T23:27:21.404Z,2.20
2019-01-08T23:29:51.174Z,2.20
2019-01-08T23:32:19.995Z,2.10
2019-01-08T23:34:48.827Z,2.10
2019-01-08T23:37:17.881Z,2.10
2019-01-08T23:39:46.985Z,2.00
2019-01-08T23:42:15.936Z,2.00
2019-01-08T23:44:44.921Z,2.00
2019-01-08T23:47:14.293Z,2.00
2019-01-08T23:49:43.613Z,1.90
2019-01-08T23:52:23.748Z,2.00
2019-01-08T23:54:54.498Z,2.00
2019-01-08T23:57:25.977Z,2.00
2019-01-08T23:59:56.055Z,2.00
